sensor_id;sensor_type;location;lat;lon;timestamp;P1;durP1;ratioP1;P2;durP2;ratioP2
68256;SDS011;55069;51.568;4.656;2022-08-04T00:01:03;6.00;;;2.60;;
68256;SDS011;55069;51.568;4.656;2022-08-04T00:03:55;6.80;;;2.78;;
68256;SDS011;55069;51.568;4.656;2022-08-04T00:09:51;5.32;;;2.20;;
68256;SDS011;55069;51.568;4.656;2022-08-04T00:12:24;4.80;;;2.30;;
68256;SDS011;55069;51.568;4.656;2022-08-04T00:14:54;5.88;;;2.72;;
68256;SDS011;55069;51.568;4.656;2022-08-04T00:17:24;8.18;;;2.80;;
68256;SDS011;55069;51.568;4.656;2022-08-04T00:19:55;6.93;;;2.25;;
68256;SDS011;55069;51.568;4.656;2022-08-04T00:22:28;3.47;;;2.38;;
68256;SDS011;55069;51.568;4.656;2022-08-04T00:24:56;9.43;;;2.33;;
68256;SDS011;55069;51.568;4.656;2022-08-04T00:27:22;3.60;;;2.05;;
68256;SDS011;55069;51.568;4.656;2022-08-04T00:29:48;7.13;;;2.10;;
68256;SDS011;55069;51.568;4.656;2022-08-04T00:32:14;6.70;;;2.83;;
68256;SDS011;55069;51.568;4.656;2022-08-04T00:34:42;4.13;;;2.17;;
68256;SDS011;55069;51.568;4.656;2022-08-04T00:37:08;5.80;;;2.22;;
68256;SDS011;55069;51.568;4.656;2022-08-04T00:39:34;6.22;;;2.20;;
68256;SDS011;55069;51.568;4.656;2022-08-04T00:52:53;6.10;;;2.45;;
68256;SDS011;55069;51.568;4.656;2022-08-04T00:55:43;5.15;;;2.13;;
68256;SDS011;55069;51.568;4.656;2022-08-04T00:58:39;4.25;;;2.60;;
68256;SDS011;55069;51.568;4.656;2022-08-04T01:01:38;6.10;;;3.25;;
68256;SDS011;55069;51.568;4.656;2022-08-04T01:05:14;7.40;;;3.03;;
68256;SDS011;55069;51.568;4.656;2022-08-04T01:18:26;6.93;;;2.40;;
68256;SDS011;55069;51.568;4.656;2022-08-04T01:29:05;6.13;;;2.85;;
68256;SDS011;55069;51.568;4.656;2022-08-04T01:34:15;5.43;;;2.63;;
68256;SDS011;55069;51.568;4.656;2022-08-04T01:36:46;5.10;;;2.35;;
68256;SDS011;55069;51.568;4.656;2022-08-04T01:39:30;9.60;;;2.97;;
68256;SDS011;55069;51.568;4.656;2022-08-04T01:42:05;4.82;;;2.45;;
68256;SDS011;55069;51.568;4.656;2022-08-04T01:44:31;8.13;;;2.47;;
68256;SDS011;55069;51.568;4.656;2022-08-04T01:47:00;7.70;;;2.92;;
68256;SDS011;55069;51.568;4.656;2022-08-04T01:49:29;7.30;;;2.53;;
68256;SDS011;55069;51.568;4.656;2022-08-04T01:51:56;8.15;;;2.30;;
68256;SDS011;55069;51.568;4.656;2022-08-04T01:54:22;8.98;;;3.20;;
68256;SDS011;55069;51.568;4.656;2022-08-04T01:56:49;5.97;;;2.60;;
68256;SDS011;55069;51.568;4.656;2022-08-04T01:59:20;10.40;;;2.53;;
68256;SDS011;55069;51.568;4.656;2022-08-04T02:01:49;6.68;;;2.47;;
68256;SDS011;55069;51.568;4.656;2022-08-04T02:04:16;5.03;;;2.50;;
68256;SDS011;55069;51.568;4.656;2022-08-04T02:11:46;7.47;;;2.40;;
68256;SDS011;55069;51.568;4.656;2022-08-04T02:14:24;7.65;;;2.50;;
68256;SDS011;55069;51.568;4.656;2022-08-04T02:17:12;5.45;;;2.25;;
68256;SDS011;55069;51.568;4.656;2022-08-04T02:22:10;12.82;;;2.50;;
68256;SDS011;55069;51.568;4.656;2022-08-04T02:24:42;9.63;;;2.75;;
68256;SDS011;55069;51.568;4.656;2022-08-04T02:27:14;6.60;;;2.28;;
68256;SDS011;55069;51.568;4.656;2022-08-04T02:29:51;5.60;;;2.78;;
68256;SDS011;55069;51.568;4.656;2022-08-04T02:32:28;10.30;;;2.92;;
68256;SDS011;55069;51.568;4.656;2022-08-04T02:35:07;7.18;;;2.83;;
68256;SDS011;55069;51.568;4.656;2022-08-04T02:37:37;9.82;;;2.95;;
68256;SDS011;55069;51.568;4.656;2022-08-04T02:40:11;4.20;;;2.50;;
68256;SDS011;55069;51.568;4.656;2022-08-04T02:42:37;8.88;;;3.10;;
68256;SDS011;55069;51.568;4.656;2022-08-04T02:45:02;5.97;;;3.40;;
68256;SDS011;55069;51.568;4.656;2022-08-04T02:47:30;8.18;;;4.18;;
68256;SDS011;55069;51.568;4.656;2022-08-04T02:49:58;10.70;;;4.57;;
68256;SDS011;55069;51.568;4.656;2022-08-04T02:52:26;7.57;;;5.15;;
68256;SDS011;55069;51.568;4.656;2022-08-04T02:54:55;10.60;;;4.88;;
68256;SDS011;55069;51.568;4.656;2022-08-04T02:57:25;11.98;;;4.90;;
68256;SDS011;55069;51.568;4.656;2022-08-04T03:37:07;9.65;;;5.38;;
68256;SDS011;55069;51.568;4.656;2022-08-04T03:39:48;11.27;;;5.00;;
68256;SDS011;55069;51.568;4.656;2022-08-04T03:50:50;8.93;;;4.70;;
68256;SDS011;55069;51.568;4.656;2022-08-04T03:59:41;11.45;;;3.67;;
68256;SDS011;55069;51.568;4.656;2022-08-04T04:11:07;7.43;;;3.38;;
68256;SDS011;55069;51.568;4.656;2022-08-04T04:30:11;6.83;;;2.70;;
68256;SDS011;55069;51.568;4.656;2022-08-04T04:38:30;10.50;;;2.38;;
68256;SDS011;55069;51.568;4.656;2022-08-04T04:47:10;6.43;;;2.58;;
68256;SDS011;55069;51.568;4.656;2022-08-04T04:50:25;10.43;;;2.17;;
68256;SDS011;55069;51.568;4.656;2022-08-04T04:55:32;5.93;;;1.70;;
68256;SDS011;55069;51.568;4.656;2022-08-04T04:58:04;8.70;;;2.07;;
68256;SDS011;55069;51.568;4.656;2022-08-04T05:00:44;11.18;;;1.65;;
68256;SDS011;55069;51.568;4.656;2022-08-04T05:06:19;5.13;;;1.67;;
68256;SDS011;55069;51.568;4.656;2022-08-04T05:14:15;7.80;;;1.50;;
68256;SDS011;55069;51.568;4.656;2022-08-04T05:17:35;8.73;;;1.90;;
68256;SDS011;55069;51.568;4.656;2022-08-04T05:22:23;8.73;;;2.00;;
68256;SDS011;55069;51.568;4.656;2022-08-04T05:27:49;8.30;;;1.63;;
68256;SDS011;55069;51.568;4.656;2022-08-04T05:30:31;11.60;;;2.13;;
68256;SDS011;55069;51.568;4.656;2022-08-04T05:33:02;7.95;;;1.92;;
68256;SDS011;55069;51.568;4.656;2022-08-04T05:35:40;11.40;;;2.45;;
68256;SDS011;55069;51.568;4.656;2022-08-04T05:38:09;9.57;;;2.30;;
68256;SDS011;55069;51.568;4.656;2022-08-04T05:40:38;11.35;;;2.50;;
68256;SDS011;55069;51.568;4.656;2022-08-04T05:43:05;9.23;;;2.08;;
68256;SDS011;55069;51.568;4.656;2022-08-04T05:45:32;19.55;;;2.50;;
68256;SDS011;55069;51.568;4.656;2022-08-04T05:48:01;8.18;;;2.47;;
68256;SDS011;55069;51.568;4.656;2022-08-04T05:50:29;7.53;;;2.10;;
68256;SDS011;55069;51.568;4.656;2022-08-04T05:52:56;11.13;;;2.80;;
68256;SDS011;55069;51.568;4.656;2022-08-04T05:55:23;10.90;;;2.40;;
68256;SDS011;55069;51.568;4.656;2022-08-04T05:57:50;9.40;;;2.22;;
68256;SDS011;55069;51.568;4.656;2022-08-04T06:00:17;11.38;;;2.53;;
68256;SDS011;55069;51.568;4.656;2022-08-04T06:02:46;7.77;;;2.10;;
68256;SDS011;55069;51.568;4.656;2022-08-04T06:05:14;8.82;;;2.40;;
68256;SDS011;55069;51.568;4.656;2022-08-04T06:07:43;7.57;;;2.45;;
68256;SDS011;55069;51.568;4.656;2022-08-04T06:10:09;8.77;;;2.30;;
68256;SDS011;55069;51.568;4.656;2022-08-04T06:12:37;7.88;;;2.30;;
68256;SDS011;55069;51.568;4.656;2022-08-04T06:15:08;12.03;;;2.77;;
68256;SDS011;55069;51.568;4.656;2022-08-04T06:17:42;10.38;;;2.42;;
68256;SDS011;55069;51.568;4.656;2022-08-04T06:20:13;14.77;;;2.95;;
68256;SDS011;55069;51.568;4.656;2022-08-04T06:22:42;12.50;;;2.78;;
68256;SDS011;55069;51.568;4.656;2022-08-04T06:25:13;6.75;;;2.60;;
68256;SDS011;55069;51.568;4.656;2022-08-04T06:27:42;9.70;;;2.33;;
68256;SDS011;55069;51.568;4.656;2022-08-04T06:30:08;11.43;;;2.40;;
68256;SDS011;55069;51.568;4.656;2022-08-04T06:32:39;11.57;;;2.80;;
68256;SDS011;55069;51.568;4.656;2022-08-04T06:35:17;10.70;;;2.72;;
68256;SDS011;55069;51.568;4.656;2022-08-04T06:37:46;9.07;;;2.67;;
68256;SDS011;55069;51.568;4.656;2022-08-04T06:40:14;8.83;;;2.67;;
68256;SDS011;55069;51.568;4.656;2022-08-04T06:42:42;7.90;;;2.63;;
68256;SDS011;55069;51.568;4.656;2022-08-04T06:45:09;8.05;;;2.28;;
68256;SDS011;55069;51.568;4.656;2022-08-04T06:47:37;15.35;;;2.90;;
68256;SDS011;55069;51.568;4.656;2022-08-04T06:50:05;10.75;;;2.72;;
68256;SDS011;55069;51.568;4.656;2022-08-04T06:52:33;7.13;;;2.53;;
68256;SDS011;55069;51.568;4.656;2022-08-04T06:54:59;15.23;;;2.90;;
68256;SDS011;55069;51.568;4.656;2022-08-04T06:57:26;6.40;;;2.85;;
68256;SDS011;55069;51.568;4.656;2022-08-04T06:59:57;11.13;;;2.53;;
68256;SDS011;55069;51.568;4.656;2022-08-04T07:02:32;11.45;;;2.35;;
68256;SDS011;55069;51.568;4.656;2022-08-04T07:05:04;10.80;;;2.73;;
68256;SDS011;55069;51.568;4.656;2022-08-04T07:07:31;9.05;;;2.72;;
68256;SDS011;55069;51.568;4.656;2022-08-04T07:09:58;11.50;;;3.10;;
68256;SDS011;55069;51.568;4.656;2022-08-04T07:12:25;11.15;;;3.03;;
68256;SDS011;55069;51.568;4.656;2022-08-04T07:14:52;13.75;;;3.03;;
68256;SDS011;55069;51.568;4.656;2022-08-04T07:17:19;8.20;;;2.30;;
68256;SDS011;55069;51.568;4.656;2022-08-04T07:19:45;11.48;;;3.20;;
68256;SDS011;55069;51.568;4.656;2022-08-04T07:22:11;10.68;;;3.17;;
68256;SDS011;55069;51.568;4.656;2022-08-04T07:24:40;8.70;;;2.78;;
68256;SDS011;55069;51.568;4.656;2022-08-04T07:27:06;10.10;;;3.10;;
68256;SDS011;55069;51.568;4.656;2022-08-04T07:29:35;9.65;;;3.17;;
68256;SDS011;55069;51.568;4.656;2022-08-04T07:32:01;13.43;;;3.55;;
68256;SDS011;55069;51.568;4.656;2022-08-04T07:34:30;11.45;;;3.22;;
68256;SDS011;55069;51.568;4.656;2022-08-04T07:36:57;13.80;;;3.40;;
68256;SDS011;55069;51.568;4.656;2022-08-04T07:39:27;9.45;;;3.00;;
68256;SDS011;55069;51.568;4.656;2022-08-04T07:41:57;11.38;;;3.90;;
68256;SDS011;55069;51.568;4.656;2022-08-04T07:44:24;8.40;;;3.22;;
68256;SDS011;55069;51.568;4.656;2022-08-04T07:46:50;12.27;;;3.40;;
68256;SDS011;55069;51.568;4.656;2022-08-04T07:49:16;16.00;;;3.97;;
68256;SDS011;55069;51.568;4.656;2022-08-04T07:51:42;15.80;;;3.88;;
68256;SDS011;55069;51.568;4.656;2022-08-04T07:54:08;11.57;;;3.47;;
68256;SDS011;55069;51.568;4.656;2022-08-04T07:56:36;14.77;;;3.33;;
68256;SDS011;55069;51.568;4.656;2022-08-04T07:59:03;13.50;;;3.93;;
68256;SDS011;55069;51.568;4.656;2022-08-04T08:01:30;9.98;;;2.97;;
68256;SDS011;55069;51.568;4.656;2022-08-04T08:03:57;9.98;;;3.00;;
68256;SDS011;55069;51.568;4.656;2022-08-04T08:06:24;10.77;;;3.05;;
68256;SDS011;55069;51.568;4.656;2022-08-04T08:08:51;11.73;;;3.10;;
68256;SDS011;55069;51.568;4.656;2022-08-04T08:11:17;9.57;;;2.42;;
68256;SDS011;55069;51.568;4.656;2022-08-04T08:13:43;8.85;;;2.65;;
68256;SDS011;55069;51.568;4.656;2022-08-04T08:16:10;5.95;;;2.30;;
68256;SDS011;55069;51.568;4.656;2022-08-04T08:18:36;8.10;;;2.40;;
68256;SDS011;55069;51.568;4.656;2022-08-04T08:21:02;13.67;;;2.20;;
68256;SDS011;55069;51.568;4.656;2022-08-04T08:23:29;5.00;;;2.13;;
68256;SDS011;55069;51.568;4.656;2022-08-04T08:25:56;6.75;;;2.33;;
68256;SDS011;55069;51.568;4.656;2022-08-04T08:28:23;6.80;;;2.38;;
68256;SDS011;55069;51.568;4.656;2022-08-04T08:30:49;8.23;;;2.22;;
68256;SDS011;55069;51.568;4.656;2022-08-04T08:33:15;6.30;;;2.20;;
68256;SDS011;55069;51.568;4.656;2022-08-04T09:01:11;6.32;;;2.30;;
68256;SDS011;55069;51.568;4.656;2022-08-04T09:10:11;8.43;;;2.80;;
68256;SDS011;55069;51.568;4.656;2022-08-04T09:15:13;5.53;;;2.10;;
68256;SDS011;55069;51.568;4.656;2022-08-04T09:23:22;9.50;;;2.25;;
68256;SDS011;55069;51.568;4.656;2022-08-04T09:26:03;7.88;;;1.83;;
68256;SDS011;55069;51.568;4.656;2022-08-04T09:34:56;8.32;;;1.80;;
68256;SDS011;55069;51.568;4.656;2022-08-04T09:43:35;10.27;;;1.88;;
68256;SDS011;55069;51.568;4.656;2022-08-04T09:46:08;8.90;;;2.03;;
68256;SDS011;55069;51.568;4.656;2022-08-04T09:48:47;9.85;;;2.08;;
68256;SDS011;55069;51.568;4.656;2022-08-04T09:51:23;6.70;;;1.98;;
68256;SDS011;55069;51.568;4.656;2022-08-04T09:59:52;6.18;;;1.63;;
68256;SDS011;55069;51.568;4.656;2022-08-04T10:02:25;6.28;;;2.40;;
68256;SDS011;55069;51.568;4.656;2022-08-04T10:05:01;8.55;;;1.88;;
68256;SDS011;55069;51.568;4.656;2022-08-04T10:16:06;10.60;;;2.50;;
68256;SDS011;55069;51.568;4.656;2022-08-04T10:19:00;6.68;;;2.13;;
68256;SDS011;55069;51.568;4.656;2022-08-04T10:27:01;11.98;;;2.45;;
68256;SDS011;55069;51.568;4.656;2022-08-04T10:29:43;9.50;;;2.20;;
68256;SDS011;55069;51.568;4.656;2022-08-04T10:32:18;6.65;;;2.28;;
68256;SDS011;55069;51.568;4.656;2022-08-04T10:34:53;11.18;;;3.08;;
68256;SDS011;55069;51.568;4.656;2022-08-04T10:37:33;7.22;;;2.47;;
68256;SDS011;55069;51.568;4.656;2022-08-04T10:43:10;10.48;;;2.55;;
68256;SDS011;55069;51.568;4.656;2022-08-04T10:45:45;7.65;;;2.50;;
68256;SDS011;55069;51.568;4.656;2022-08-04T10:48:19;11.88;;;2.75;;
68256;SDS011;55069;51.568;4.656;2022-08-04T10:53:46;8.95;;;2.50;;
68256;SDS011;55069;51.568;4.656;2022-08-04T10:56:18;9.32;;;2.50;;
68256;SDS011;55069;51.568;4.656;2022-08-04T10:58:55;5.95;;;2.40;;
68256;SDS011;55069;51.568;4.656;2022-08-04T11:01:31;10.23;;;2.80;;
68256;SDS011;55069;51.568;4.656;2022-08-04T11:04:09;6.55;;;2.40;;
68256;SDS011;55069;51.568;4.656;2022-08-04T11:06:42;6.70;;;2.63;;
68256;SDS011;55069;51.568;4.656;2022-08-04T11:09:10;10.57;;;2.45;;
68256;SDS011;55069;51.568;4.656;2022-08-04T11:11:42;6.43;;;2.35;;
68256;SDS011;55069;51.568;4.656;2022-08-04T11:14:21;12.00;;;2.47;;
68256;SDS011;55069;51.568;4.656;2022-08-04T11:17:00;6.18;;;2.72;;
68256;SDS011;55069;51.568;4.656;2022-08-04T11:22:12;8.77;;;2.90;;
68256;SDS011;55069;51.568;4.656;2022-08-04T11:24:45;6.97;;;2.80;;
68256;SDS011;55069;51.568;4.656;2022-08-04T11:30:15;8.63;;;3.08;;
68256;SDS011;55069;51.568;4.656;2022-08-04T11:36:07;5.95;;;2.78;;
68256;SDS011;55069;51.568;4.656;2022-08-04T11:41:18;6.87;;;3.00;;
68256;SDS011;55069;51.568;4.656;2022-08-04T11:43:53;6.40;;;2.20;;
68256;SDS011;55069;51.568;4.656;2022-08-04T11:46:29;6.45;;;2.58;;
68256;SDS011;55069;51.568;4.656;2022-08-04T11:49:09;4.78;;;2.25;;
68256;SDS011;55069;51.568;4.656;2022-08-04T11:51:41;11.10;;;2.70;;
68256;SDS011;55069;51.568;4.656;2022-08-04T11:54:09;9.80;;;2.30;;
68256;SDS011;55069;51.568;4.656;2022-08-04T11:56:36;11.50;;;2.65;;
68256;SDS011;55069;51.568;4.656;2022-08-04T11:59:02;7.50;;;2.47;;
68256;SDS011;55069;51.568;4.656;2022-08-04T12:04:59;5.70;;;2.60;;
68256;SDS011;55069;51.568;4.656;2022-08-04T12:07:43;4.82;;;2.30;;
68256;SDS011;55069;51.568;4.656;2022-08-04T12:10:29;5.95;;;2.92;;
68256;SDS011;55069;51.568;4.656;2022-08-04T12:13:03;7.38;;;3.53;;
68256;SDS011;55069;51.568;4.656;2022-08-04T12:15:37;6.60;;;3.15;;
68256;SDS011;55069;51.568;4.656;2022-08-04T12:18:20;7.57;;;3.07;;
68256;SDS011;55069;51.568;4.656;2022-08-04T12:20:58;7.88;;;3.78;;
68256;SDS011;55069;51.568;4.656;2022-08-04T12:23:29;9.57;;;3.33;;
68256;SDS011;55069;51.568;4.656;2022-08-04T12:25:59;4.85;;;2.40;;
68256;SDS011;55069;51.568;4.656;2022-08-04T12:28:33;9.25;;;2.97;;
68256;SDS011;55069;51.568;4.656;2022-08-04T12:31:07;8.63;;;3.20;;
68256;SDS011;55069;51.568;4.656;2022-08-04T12:36:23;6.78;;;3.08;;
68256;SDS011;55069;51.568;4.656;2022-08-04T12:39:23;4.38;;;2.78;;
68256;SDS011;55069;51.568;4.656;2022-08-04T12:44:39;11.73;;;2.27;;
68256;SDS011;55069;51.568;4.656;2022-08-04T12:47:08;7.80;;;2.83;;
68256;SDS011;55069;51.568;4.656;2022-08-04T12:49:36;5.68;;;2.60;;
68256;SDS011;55069;51.568;4.656;2022-08-04T12:52:06;6.07;;;2.80;;
68256;SDS011;55069;51.568;4.656;2022-08-04T12:54:33;5.32;;;2.30;;
68256;SDS011;55069;51.568;4.656;2022-08-04T12:57:03;4.70;;;2.40;;
68256;SDS011;55069;51.568;4.656;2022-08-04T12:59:43;6.85;;;2.53;;
68256;SDS011;55069;51.568;4.656;2022-08-04T13:02:15;3.85;;;2.40;;
68256;SDS011;55069;51.568;4.656;2022-08-04T13:05:05;6.25;;;2.70;;
68256;SDS011;55069;51.568;4.656;2022-08-04T13:07:41;5.15;;;2.50;;
68256;SDS011;55069;51.568;4.656;2022-08-04T13:10:12;8.37;;;2.03;;
68256;SDS011;55069;51.568;4.656;2022-08-04T13:12:39;10.10;;;3.05;;
68256;SDS011;55069;51.568;4.656;2022-08-04T13:15:13;10.40;;;2.58;;
68256;SDS011;55069;51.568;4.656;2022-08-04T13:17:58;9.80;;;2.20;;
68256;SDS011;55069;51.568;4.656;2022-08-04T13:20:34;6.15;;;2.58;;
68256;SDS011;55069;51.568;4.656;2022-08-04T13:23:12;6.67;;;2.50;;
68256;SDS011;55069;51.568;4.656;2022-08-04T13:25:41;5.72;;;2.55;;
68256;SDS011;55069;51.568;4.656;2022-08-04T13:28:12;12.23;;;3.03;;
68256;SDS011;55069;51.568;4.656;2022-08-04T13:30:42;6.03;;;2.15;;
68256;SDS011;55069;51.568;4.656;2022-08-04T13:33:10;8.45;;;2.85;;
68256;SDS011;55069;51.568;4.656;2022-08-04T13:35:41;8.90;;;2.83;;
68256;SDS011;55069;51.568;4.656;2022-08-04T13:38:10;5.22;;;2.40;;
68256;SDS011;55069;51.568;4.656;2022-08-04T13:40:38;6.70;;;2.50;;
68256;SDS011;55069;51.568;4.656;2022-08-04T13:43:07;6.00;;;2.92;;
68256;SDS011;55069;51.568;4.656;2022-08-04T13:45:46;6.95;;;2.65;;
68256;SDS011;55069;51.568;4.656;2022-08-04T13:48:13;6.30;;;2.67;;
68256;SDS011;55069;51.568;4.656;2022-08-04T13:50:39;10.23;;;2.47;;
68256;SDS011;55069;51.568;4.656;2022-08-04T13:53:10;6.63;;;2.40;;
68256;SDS011;55069;51.568;4.656;2022-08-04T13:55:36;4.60;;;2.08;;
68256;SDS011;55069;51.568;4.656;2022-08-04T13:58:08;5.30;;;1.90;;
68256;SDS011;55069;51.568;4.656;2022-08-04T14:03:13;5.22;;;2.20;;
68256;SDS011;55069;51.568;4.656;2022-08-04T14:06:08;5.43;;;1.90;;
68256;SDS011;55069;51.568;4.656;2022-08-04T14:08:42;7.47;;;2.15;;
68256;SDS011;55069;51.568;4.656;2022-08-04T14:11:12;6.22;;;2.42;;
68256;SDS011;55069;51.568;4.656;2022-08-04T14:13:39;4.93;;;2.07;;
68256;SDS011;55069;51.568;4.656;2022-08-04T14:16:16;4.95;;;2.10;;
68256;SDS011;55069;51.568;4.656;2022-08-04T14:18:44;6.75;;;1.95;;
68256;SDS011;55069;51.568;4.656;2022-08-04T14:21:10;4.87;;;1.97;;
68256;SDS011;55069;51.568;4.656;2022-08-04T14:26:39;7.93;;;1.80;;
68256;SDS011;55069;51.568;4.656;2022-08-04T14:29:06;10.15;;;1.80;;
68256;SDS011;55069;51.568;4.656;2022-08-04T14:31:32;4.07;;;1.83;;
68256;SDS011;55069;51.568;4.656;2022-08-04T14:33:58;6.63;;;1.70;;
68256;SDS011;55069;51.568;4.656;2022-08-04T14:36:24;8.10;;;1.70;;
68256;SDS011;55069;51.568;4.656;2022-08-04T14:38:54;6.47;;;1.52;;
68256;SDS011;55069;51.568;4.656;2022-08-04T14:41:25;10.60;;;2.10;;
68256;SDS011;55069;51.568;4.656;2022-08-04T14:43:57;3.58;;;1.38;;
68256;SDS011;55069;51.568;4.656;2022-08-04T14:46:25;4.90;;;1.67;;
68256;SDS011;55069;51.568;4.656;2022-08-04T14:48:59;7.05;;;2.15;;
68256;SDS011;55069;51.568;4.656;2022-08-04T14:51:26;6.28;;;2.10;;
68256;SDS011;55069;51.568;4.656;2022-08-04T14:53:53;6.67;;;1.70;;
68256;SDS011;55069;51.568;4.656;2022-08-04T14:56:20;3.67;;;1.80;;
68256;SDS011;55069;51.568;4.656;2022-08-04T14:58:45;5.72;;;1.58;;
68256;SDS011;55069;51.568;4.656;2022-08-04T15:01:23;6.35;;;2.25;;
68256;SDS011;55069;51.568;4.656;2022-08-04T15:03:51;11.23;;;2.23;;
68256;SDS011;55069;51.568;4.656;2022-08-04T15:06:22;7.05;;;2.30;;
68256;SDS011;55069;51.568;4.656;2022-08-04T15:08:51;4.05;;;1.90;;
68256;SDS011;55069;51.568;4.656;2022-08-04T15:11:18;10.35;;;2.38;;
68256;SDS011;55069;51.568;4.656;2022-08-04T15:13:44;8.65;;;2.15;;
68256;SDS011;55069;51.568;4.656;2022-08-04T15:16:13;5.83;;;2.00;;
68256;SDS011;55069;51.568;4.656;2022-08-04T15:18:39;5.28;;;1.73;;
68256;SDS011;55069;51.568;4.656;2022-08-04T15:21:06;4.88;;;1.90;;
68256;SDS011;55069;51.568;4.656;2022-08-04T15:23:32;8.65;;;2.22;;
68256;SDS011;55069;51.568;4.656;2022-08-04T15:26:00;9.23;;;2.27;;
68256;SDS011;55069;51.568;4.656;2022-08-04T15:28:28;5.57;;;2.20;;
68256;SDS011;55069;51.568;4.656;2022-08-04T15:30:57;7.65;;;2.20;;
68256;SDS011;55069;51.568;4.656;2022-08-04T15:33:26;6.15;;;2.40;;
68256;SDS011;55069;51.568;4.656;2022-08-04T15:36:16;6.78;;;2.28;;
68256;SDS011;55069;51.568;4.656;2022-08-04T15:41:47;8.77;;;2.00;;
68256;SDS011;55069;51.568;4.656;2022-08-04T15:47:15;5.80;;;2.28;;
68256;SDS011;55069;51.568;4.656;2022-08-04T15:49:41;5.45;;;2.17;;
68256;SDS011;55069;51.568;4.656;2022-08-04T15:52:25;5.00;;;2.00;;
68256;SDS011;55069;51.568;4.656;2022-08-04T15:54:53;5.65;;;2.55;;
68256;SDS011;55069;51.568;4.656;2022-08-04T15:57:59;9.43;;;2.30;;
68256;SDS011;55069;51.568;4.656;2022-08-04T16:16:29;7.03;;;2.70;;
68256;SDS011;55069;51.568;4.656;2022-08-04T16:24:20;11.00;;;3.10;;
68256;SDS011;55069;51.568;4.656;2022-08-04T16:26:53;10.90;;;2.47;;
68256;SDS011;55069;51.568;4.656;2022-08-04T16:34:38;6.03;;;2.67;;
68256;SDS011;55069;51.568;4.656;2022-08-04T16:37:17;7.47;;;2.60;;
68256;SDS011;55069;51.568;4.656;2022-08-04T16:39:44;8.95;;;2.90;;
68256;SDS011;55069;51.568;4.656;2022-08-04T16:50:13;8.03;;;2.70;;
68256;SDS011;55069;51.568;4.656;2022-08-04T16:52:49;6.80;;;2.10;;
68256;SDS011;55069;51.568;4.656;2022-08-04T16:55:17;6.95;;;2.50;;
68256;SDS011;55069;51.568;4.656;2022-08-04T16:57:47;8.48;;;2.50;;
68256;SDS011;55069;51.568;4.656;2022-08-04T17:00:14;4.63;;;2.00;;
68256;SDS011;55069;51.568;4.656;2022-08-04T17:02:42;6.97;;;2.43;;
68256;SDS011;55069;51.568;4.656;2022-08-04T17:05:20;8.35;;;2.20;;
68256;SDS011;55069;51.568;4.656;2022-08-04T17:07:47;4.53;;;2.03;;
68256;SDS011;55069;51.568;4.656;2022-08-04T17:10:17;4.25;;;1.90;;
68256;SDS011;55069;51.568;4.656;2022-08-04T17:12:44;4.72;;;2.00;;
68256;SDS011;55069;51.568;4.656;2022-08-04T17:15:22;10.23;;;2.40;;
68256;SDS011;55069;51.568;4.656;2022-08-04T17:17:49;5.70;;;2.10;;
68256;SDS011;55069;51.568;4.656;2022-08-04T17:20:15;5.53;;;1.92;;
68256;SDS011;55069;51.568;4.656;2022-08-04T17:22:42;6.30;;;2.35;;
68256;SDS011;55069;51.568;4.656;2022-08-04T17:25:10;6.37;;;1.97;;
68256;SDS011;55069;51.568;4.656;2022-08-04T17:27:36;8.15;;;2.05;;
68256;SDS011;55069;51.568;4.656;2022-08-04T17:30:02;6.50;;;2.37;;
68256;SDS011;55069;51.568;4.656;2022-08-04T17:32:28;9.43;;;1.90;;
68256;SDS011;55069;51.568;4.656;2022-08-04T17:34:54;5.50;;;1.80;;
68256;SDS011;55069;51.568;4.656;2022-08-04T17:37:24;4.43;;;1.60;;
68256;SDS011;55069;51.568;4.656;2022-08-04T17:39:51;3.78;;;1.80;;
68256;SDS011;55069;51.568;4.656;2022-08-04T17:42:29;8.88;;;1.90;;
68256;SDS011;55069;51.568;4.656;2022-08-04T17:45:09;5.55;;;1.95;;
68256;SDS011;55069;51.568;4.656;2022-08-04T17:47:57;4.47;;;2.00;;
68256;SDS011;55069;51.568;4.656;2022-08-04T17:50:23;13.40;;;2.23;;
68256;SDS011;55069;51.568;4.656;2022-08-04T17:52:57;12.88;;;2.10;;
68256;SDS011;55069;51.568;4.656;2022-08-04T17:55:24;6.60;;;1.85;;
68256;SDS011;55069;51.568;4.656;2022-08-04T17:58:10;6.50;;;1.87;;
68256;SDS011;55069;51.568;4.656;2022-08-04T18:00:41;11.55;;;2.45;;
68256;SDS011;55069;51.568;4.656;2022-08-04T18:03:07;6.57;;;1.98;;
68256;SDS011;55069;51.568;4.656;2022-08-04T18:05:32;5.73;;;1.90;;
68256;SDS011;55069;51.568;4.656;2022-08-04T18:08:06;6.38;;;1.50;;
68256;SDS011;55069;51.568;4.656;2022-08-04T18:10:35;6.00;;;1.40;;
68256;SDS011;55069;51.568;4.656;2022-08-04T18:13:05;7.50;;;1.83;;
68256;SDS011;55069;51.568;4.656;2022-08-04T18:15:32;5.90;;;1.38;;
68256;SDS011;55069;51.568;4.656;2022-08-04T18:18:15;5.28;;;1.63;;
68256;SDS011;55069;51.568;4.656;2022-08-04T18:20:45;6.45;;;1.77;;
68256;SDS011;55069;51.568;4.656;2022-08-04T18:23:11;10.33;;;1.80;;
68256;SDS011;55069;51.568;4.656;2022-08-04T18:25:38;6.93;;;1.70;;
68256;SDS011;55069;51.568;4.656;2022-08-04T18:28:08;5.82;;;1.63;;
68256;SDS011;55069;51.568;4.656;2022-08-04T18:30:34;8.43;;;1.43;;
68256;SDS011;55069;51.568;4.656;2022-08-04T18:33:01;8.45;;;1.90;;
68256;SDS011;55069;51.568;4.656;2022-08-04T18:35:28;6.57;;;1.85;;
68256;SDS011;55069;51.568;4.656;2022-08-04T18:37:55;8.13;;;1.85;;
68256;SDS011;55069;51.568;4.656;2022-08-04T18:40:21;5.22;;;1.65;;
68256;SDS011;55069;51.568;4.656;2022-08-04T18:42:47;4.80;;;1.55;;
68256;SDS011;55069;51.568;4.656;2022-08-04T18:45:12;4.90;;;1.42;;
68256;SDS011;55069;51.568;4.656;2022-08-04T18:47:39;6.28;;;1.88;;
68256;SDS011;55069;51.568;4.656;2022-08-04T18:50:05;6.65;;;1.50;;
68256;SDS011;55069;51.568;4.656;2022-08-04T18:52:32;4.85;;;1.50;;
68256;SDS011;55069;51.568;4.656;2022-08-04T18:54:58;5.00;;;1.63;;
68256;SDS011;55069;51.568;4.656;2022-08-04T18:57:24;5.87;;;1.30;;
68256;SDS011;55069;51.568;4.656;2022-08-04T18:59:53;3.97;;;1.58;;
68256;SDS011;55069;51.568;4.656;2022-08-04T19:02:20;7.32;;;1.38;;
68256;SDS011;55069;51.568;4.656;2022-08-04T19:04:46;7.20;;;1.73;;
68256;SDS011;55069;51.568;4.656;2022-08-04T19:07:13;3.72;;;1.30;;
68256;SDS011;55069;51.568;4.656;2022-08-04T19:09:44;4.70;;;1.65;;
68256;SDS011;55069;51.568;4.656;2022-08-04T19:12:12;7.03;;;1.70;;
68256;SDS011;55069;51.568;4.656;2022-08-04T19:14:38;5.97;;;1.53;;
68256;SDS011;55069;51.568;4.656;2022-08-04T19:17:04;5.20;;;1.45;;
68256;SDS011;55069;51.568;4.656;2022-08-04T19:19:30;4.45;;;1.30;;
68256;SDS011;55069;51.568;4.656;2022-08-04T19:21:55;7.18;;;1.52;;
68256;SDS011;55069;51.568;4.656;2022-08-04T19:24:21;3.90;;;1.25;;
68256;SDS011;55069;51.568;4.656;2022-08-04T19:26:47;3.38;;;1.38;;
68256;SDS011;55069;51.568;4.656;2022-08-04T19:29:12;6.63;;;1.70;;
68256;SDS011;55069;51.568;4.656;2022-08-04T19:31:41;5.35;;;1.40;;
68256;SDS011;55069;51.568;4.656;2022-08-04T19:34:07;5.83;;;1.33;;
68256;SDS011;55069;51.568;4.656;2022-08-04T19:36:36;4.05;;;1.40;;
68256;SDS011;55069;51.568;4.656;2022-08-04T19:39:04;3.15;;;1.17;;
68256;SDS011;55069;51.568;4.656;2022-08-04T19:41:31;7.70;;;1.60;;
68256;SDS011;55069;51.568;4.656;2022-08-04T19:44:00;6.88;;;1.45;;
68256;SDS011;55069;51.568;4.656;2022-08-04T19:46:32;5.32;;;1.52;;
68256;SDS011;55069;51.568;4.656;2022-08-04T19:48:58;4.47;;;1.75;;
68256;SDS011;55069;51.568;4.656;2022-08-04T19:51:24;6.50;;;1.50;;
68256;SDS011;55069;51.568;4.656;2022-08-04T19:53:50;5.82;;;1.10;;
68256;SDS011;55069;51.568;4.656;2022-08-04T19:56:16;5.03;;;1.40;;
68256;SDS011;55069;51.568;4.656;2022-08-04T19:58:42;4.70;;;1.58;;
68256;SDS011;55069;51.568;4.656;2022-08-04T20:01:08;6.30;;;1.70;;
68256;SDS011;55069;51.568;4.656;2022-08-04T20:03:35;4.80;;;1.67;;